Griffiss International Airport
KRME : now visible

Airfield :











YOU CAN JOIN US ON...

 
LOGIN :

Register | Disclaimer

   EN    FR    IT 

 









Legend :    VFR   Marginal VFR   IFR   Intensive IFR   Very Intensive IFR
Visi :
Ceiling :
>= 8 km
>= 3000ft
5 to 8 km
1000 to 3000 ft
1500m to 5 km
500 to 1000 ft
800 to 1500m
200 to 500 ft
< 800m
< 200 ft
Symbols :   Thunderstorms  Fog  Heavy snow  Heavy precipitations  Wind > 20 kt






- Airport Elevation : 504 ft


KRME - Griffiss International

CURRENT METAR :
  • 070253Z AUTO 01003KT 10SM FEW095 14/11 A2991 RMK AO2 SLP125 60000 T01440111 53012

EXPIRED METARs :
  • 070153Z AUTO 29003KT 10SM FEW110 15/11 A2989 RMK AO2 RAB04E21 SLP118 P0000 T01500111
  • 070053Z 30003KT 10SM SCT075 16/11 A2988 RMK AO2 SLP115 T01560106

TAF KRME
Valid from the 07 at 00:00 until the 08 at 00:00 UTC


062321Z 0700/0724 32008KT P6SM BKN070
FM070600 VRB03KT P6SM FEW100
FM071600 30010G16KT P6SM SCT070
KZBW FIR / North America



MET'MAP, your aeronautical weather chart ! - Copyright ORBIFLY December 2007 - Disclaimer

ORBIFLY MET'MAP TEAM :

Programming & Development : Alexandra Zaïnal
Concept & original design : Baudouin d'Aumeries
Assistance for programming : Marc-Olivier Méhu
Technical & hardware support : Manuel Goepfert

Contact : metmap@orbifly.com




SOURCES & CREDITS :

   NOAA       Earth
Advisory